Time;durP1;ratioP1;P1;durP2;ratioP2;P2;SDS_P1;SDS_P2;PMS_P1;PMS_P2;Temp;Humidity;BMP_temperature;BMP_pressure;BME280_temperature;BME280_humidity;BME280_pressure;Samples;Min_cycle;Max_cycle;Signal;HPM_P1;HPM_P2
2021/03/26 00:01:57;;;;;;;30.92;22.75;;;;;;;9.93;58.63;101156.81;4984896;28;20053;-73
2021/03/26 00:05:01;;;;;;;30.13;22.73;;;;;;;10.04;58.47;101173.00;4995838;28;20110;-73
2021/03/26 00:08:06;;;;;;;31.83;24.55;;;;;;;10.10;58.24;101161.78;4996076;28;20050;-75
2021/03/26 00:11:11;;;;;;;31.80;24.35;;;;;;;10.15;58.03;101165.03;4996730;28;20042;-74
2021/03/26 00:14:18;;;;;;;33.85;24.00;;;;;;;10.17;58.03;101169.31;4996360;28;20046;-73
2021/03/26 00:17:22;;;;;;;30.15;22.50;;;;;;;10.06;58.29;101171.03;4996016;28;20046;-79
2021/03/26 00:20:27;;;;;;;31.80;25.45;;;;;;;9.90;58.76;101162.41;4996507;28;20394;-73
2021/03/26 00:23:32;;;;;;;30.17;21.92;;;;;;;9.75;59.31;101165.19;4996385;28;20050;-75
2021/03/26 00:26:36;;;;;;;31.75;21.90;;;;;;;9.59;59.45;101164.59;4996137;28;20107;-76
2021/03/26 00:29:40;;;;;;;28.33;20.35;;;;;;;9.49;59.79;101168.88;4995994;28;20057;-74
2021/03/26 00:32:45;;;;;;;25.05;19.27;;;;;;;9.44;59.80;101173.72;4996289;28;20045;-73
2021/03/26 00:35:50;;;;;;;26.08;19.33;;;;;;;9.44;60.10;101162.13;4994954;28;20045;-74
2021/03/26 00:38:54;;;;;;;24.88;18.33;;;;;;;9.40;60.04;101166.00;4996466;28;20492;-74
2021/03/26 00:41:59;;;;;;;23.08;17.38;;;;;;;9.31;59.88;101170.16;4996066;28;20114;-75
2021/03/26 00:45:06;;;;;;;25.88;17.27;;;;;;;9.26;59.94;101172.31;4996059;28;20045;-73
2021/03/26 00:48:11;;;;;;;22.60;16.17;;;;;;;9.19;60.10;101168.34;4995501;28;20045;-73
2021/03/26 00:51:15;;;;;;;23.17;15.40;;;;;;;9.21;60.38;101169.06;4995852;28;20053;-73
2021/03/26 00:54:20;;;;;;;25.65;16.05;;;;;;;9.27;60.81;101171.34;4983753;28;20073;-72
2021/03/26 00:57:25;;;;;;;24.40;15.10;;;;;;;9.41;60.25;101173.91;4996025;28;20053;-73
2021/03/26 01:00:30;;;;;;;18.92;13.35;;;;;;;9.47;60.93;101176.19;4995481;28;20057;-72
2021/03/26 01:03:35;;;;;;;18.08;11.77;;;;;;;9.59;61.22;101169.94;4994906;28;20049;-73
2021/03/26 01:06:39;;;;;;;15.02;11.27;;;;;;;9.68;61.78;101171.09;4995114;28;20045;-72
2021/03/26 01:09:43;;;;;;;14.60;10.73;;;;;;;9.68;62.22;101166.63;4995501;28;20065;-72
2021/03/26 01:12:48;;;;;;;17.05;11.13;;;;;;;9.68;62.64;101166.63;4995549;28;20054;-71
2021/03/26 01:15:53;;;;;;;17.55;12.15;;;;;;;9.61;63.61;101169.84;4995496;28;20054;-74
2021/03/26 01:18:58;;;;;;;18.90;12.18;;;;;;;9.65;64.10;101163.31;4994879;28;20053;-72
2021/03/26 01:22:02;;;;;;;22.10;13.30;;;;;;;9.74;64.62;101168.00;4994891;28;20057;-81
2021/03/26 01:25:22;;;;;;;18.50;13.70;;;;;;;9.74;66.00;101170.69;4994564;28;20062;-76
2021/03/26 01:28:34;;;;;;;21.60;14.27;;;;;;;9.83;66.20;101175.38;4994372;28;20382;-73
2021/03/26 01:32:05;;;;;;;22.25;14.18;;;;;;;9.94;66.29;101174.63;4994369;28;20053;-73
2021/03/26 01:35:13;;;;;;;21.67;15.13;;;;;;;9.93;67.00;101179.13;4994089;28;20057;-73
2021/03/26 01:38:18;;;;;;;21.52;15.18;;;;;;;9.96;66.99;101178.03;4994863;28;20429;-74
2021/03/26 01:41:38;;;;;;;24.45;16.17;;;;;;;9.93;67.53;101178.25;4994243;28;20041;-73
2021/03/26 01:44:51;;;;;;;20.55;15.63;;;;;;;10.04;67.10;101183.72;4994176;28;20050;-73
2021/03/26 01:48:04;;;;;;;22.55;16.73;;;;;;;10.06;67.33;101182.63;4993071;28;20042;-73
2021/03/26 01:51:13;;;;;;;26.50;15.45;;;;;;;10.04;67.38;101178.34;4994119;28;20054;-74
2021/03/26 01:54:21;;;;;;;21.10;13.90;;;;;;;9.99;66.97;101177.81;4994874;28;20047;-75
2021/03/26 01:57:27;;;;;;;18.02;13.50;;;;;;;10.01;65.64;101181.25;4994153;28;20057;-74
2021/03/26 02:00:47;;;;;;;19.70;13.43;;;;;;;9.96;65.02;101178.03;4993969;28;20047;-74
2021/03/26 02:03:54;;;;;;;16.63;12.55;;;;;;;9.91;64.74;101174.84;4995015;28;20390;-73
2021/03/26 02:07:00;;;;;;;13.55;10.40;;;;;;;9.80;64.40;101183.66;5005899;28;20397;-73
2021/03/26 02:10:05;;;;;;;16.52;10.00;;;;;;;9.74;64.49;101174.22;5013422;28;20049;-74
2021/03/26 02:13:25;;;;;;;18.30;11.00;;;;;;;9.76;63.94;101174.97;5002474;28;20045;-73
2021/03/26 02:16:31;;;;;;;17.70;10.63;;;;;;;9.68;64.06;101181.84;5012879;28;20113;-73
2021/03/26 02:20:17;;;;;;;18.08;9.88;;;;;;;9.51;64.19;101185.72;5013551;28;20073;-73
2021/03/26 02:23:25;;;;;;;18.08;11.68;;;;;;;9.45;64.43;101185.28;5013899;28;20049;-76
2021/03/26 02:26:50;;;;;;;15.23;10.32;;;;;;;9.29;64.71;101189.97;5013013;28;20068;-74
2021/03/26 02:30:17;;;;;;;15.05;10.90;;;;;;;9.11;64.97;101195.66;5013322;28;20057;-80
2021/03/26 02:33:26;;;;;;;17.80;12.18;;;;;;;8.97;65.20;101189.50;5012985;28;20053;-73
2021/03/26 02:36:37;;;;;;;18.40;12.18;;;;;;;8.78;65.36;101194.41;5013947;28;20049;-74
2021/03/26 02:39:46;;;;;;;16.95;11.75;;;;;;;8.66;65.80;101198.75;5013884;28;20061;-73
2021/03/26 02:43:22;;;;;;;18.27;12.02;;;;;;;8.48;66.05;101205.31;5013151;28;20057;-73
2021/03/26 02:46:35;;;;;;;20.48;12.90;;;;;;;8.43;66.31;101204.75;5013787;28;20500;-71
2021/03/26 02:49:52;;;;;;;20.17;13.00;;;;;;;8.39;66.49;101204.09;5012671;28;20049;-74
2021/03/26 02:53:03;;;;;;;18.60;13.00;;;;;;;8.30;66.50;101203.84;5013080;28;20152;-73
2021/03/26 02:56:18;;;;;;;18.60;13.00;;;;;;;8.17;66.36;101203.72;5013304;28;20389;-74
2021/03/26 02:59:33;;;;;;;18.20;12.23;;;;;;;8.10;66.49;101207.75;5016457;28;20040;-78
2021/03/26 03:02:41;;;;;;;18.67;12.68;;;;;;;8.04;66.13;101204.63;5017554;28;20049;-74
2021/03/26 03:06:10;;;;;;;22.20;13.38;;;;;;;7.95;66.41;101213.25;5016717;28;20049;-73
2021/03/26 03:09:51;;;;;;;24.25;12.82;;;;;;;7.83;66.38;101213.03;5016096;28;20405;-75
2021/03/26 03:13:05;;;;;;;16.58;12.07;;;;;;;7.77;66.44;101221.47;5017326;28;20049;-73
2021/03/26 03:16:45;;;;;;;19.05;11.98;;;;;;;7.71;66.55;101219.16;5016630;28;20050;-73
2021/03/26 03:20:09;;;;;;;18.95;12.73;;;;;;;7.72;66.48;101225.38;5014973;28;20500;-73
2021/03/26 03:23:26;;;;;;;18.52;12.68;;;;;;;7.70;66.18;101221.94;5005449;28;20049;-73
2021/03/26 03:27:13;;;;;;;19.77;13.70;;;;;;;7.64;66.07;101222.31;5017028;28;20389;-73
2021/03/26 03:30:31;;;;;;;19.55;12.40;;;;;;;7.63;65.70;101233.94;5016161;28;20056;-72
2021/03/26 03:33:56;;;;;;;19.08;13.13;;;;;;;7.54;65.92;101229.16;5016071;28;20061;-73
2021/03/26 03:37:08;;;;;;;18.77;13.93;;;;;;;7.49;65.87;101236.59;5004812;28;20500;-73
2021/03/26 03:40:28;;;;;;;21.40;13.48;;;;;;;7.42;66.17;101235.25;5015536;28;20057;-74
2021/03/26 03:43:52;;;;;;;19.27;13.13;;;;;;;7.32;66.47;101239.44;5015649;28;20041;-72
2021/03/26 03:47:24;;;;;;;20.58;12.27;;;;;;;7.28;66.47;101237.91;5015235;28;20060;-72
2021/03/26 03:50:59;;;;;;;18.95;13.50;;;;;;;7.25;66.75;101241.63;5015770;28;20068;-73
2021/03/26 03:54:17;;;;;;;19.08;13.05;;;;;;;7.20;66.94;101238.38;5016550;28;20049;-80
2021/03/26 03:57:32;;;;;;;19.60;13.13;;;;;;;7.22;66.56;101236.47;5016749;28;20053;-73
2021/03/26 04:00:51;;;;;;;20.48;11.85;;;;;;;7.16;66.94;101240.34;5004023;28;20057;-72
2021/03/26 04:04:09;;;;;;;19.00;12.00;;;;;;;7.16;66.67;101237.69;5015461;28;20048;-72
2021/03/26 04:07:25;;;;;;;19.50;12.43;;;;;;;7.15;67.09;101256.47;5015710;28;20405;-72
2021/03/26 04:10:34;;;;;;;17.60;12.65;;;;;;;7.11;67.22;101255.78;5014902;28;20077;-72
2021/03/26 04:13:45;;;;;;;18.08;13.00;;;;;;;7.08;67.40;101253.31;5016218;28;20049;-71
2021/03/26 04:16:57;;;;;;;20.17;12.00;;;;;;;7.08;67.63;101258.66;5015086;28;20057;-73
2021/03/26 04:20:11;;;;;;;18.02;12.13;;;;;;;7.07;67.73;101250.72;5015717;28;20049;-73
2021/03/26 04:23:36;;;;;;;18.50;12.25;;;;;;;7.02;67.69;101258.13;5015155;28;20053;-72
2021/03/26 04:27:00;;;;;;;19.73;13.27;;;;;;;6.98;68.09;101261.94;5014920;28;20053;-82
2021/03/26 04:30:37;;;;;;;18.38;11.70;;;;;;;7.05;68.27;101265.97;5015022;28;20053;-73
2021/03/26 04:34:09;;;;;;;18.95;11.85;;;;;;;7.23;67.89;101272.91;5013317;28;20141;-75
2021/03/26 04:37:35;;;;;;;19.08;11.25;;;;;;;7.35;67.52;101272.16;5013594;28;20057;-75
2021/03/26 04:40:56;;;;;;;18.10;11.27;;;;;;;7.33;67.06;101278.56;5011391;28;20053;-81
2021/03/26 04:44:22;;;;;;;20.95;11.73;;;;;;;7.25;66.84;101272.78;5013652;28;20073;-80
2021/03/26 04:47:32;;;;;;;18.30;11.10;;;;;;;7.27;66.66;101274.44;5001549;28;20177;-75
2021/03/26 04:51:09;;;;;;;16.98;11.75;;;;;;;7.31;66.52;101288.47;4994213;28;20118;-75
2021/03/26 04:54:42;;;;;;;16.98;11.13;;;;;;;7.40;66.38;101285.25;5013070;28;20065;-73
2021/03/26 04:58:18;;;;;;;14.90;11.43;;;;;;;7.29;66.12;101285.88;5013094;28;20512;-76
2021/03/26 05:01:44;;;;;;;24.23;14.05;;;;;;;7.27;66.21;101292.25;5013197;28;20368;-74
2021/03/26 05:04:54;;;;;;;19.13;13.00;;;;;;;7.37;66.07;101293.44;5001865;28;20072;-73
2021/03/26 05:08:06;;;;;;;20.23;12.27;;;;;;;7.28;66.06;101299.31;5013320;28;20045;-74
2021/03/26 05:11:20;;;;;;;18.48;12.18;;;;;;;7.26;66.06;101299.41;4997565;28;20057;-74
2021/03/26 05:14:35;;;;;;;18.00;12.80;;;;;;;7.33;65.97;101294.56;4994662;28;20473;-74
2021/03/26 05:17:53;;;;;;;;;;;;;;;7.40;65.90;101304.81;4995115;28;20053;-74
2021/03/26 05:21:11;;;;;;;16.15;12.00;;;;;;;7.41;65.79;101306.50;4994775;28;20285;-73
2021/03/26 05:24:30;;;;;;;20.00;13.48;;;;;;;7.39;65.64;101304.88;4995234;28;20073;-74
2021/03/26 05:28:11;;;;;;;25.35;14.48;;;;;;;7.42;65.51;101310.03;4999821;28;20494;-73
2021/03/26 05:31:37;;;;;;;25.90;16.48;;;;;;;7.66;64.91;101303.22;4994194;28;20053;-74
2021/03/26 05:34:57;;;;;;;26.70;14.70;;;;;;;7.87;64.27;101316.13;4995153;28;20054;-73
2021/03/26 05:38:31;;;;;;;26.60;14.77;;;;;;;8.10;63.26;101314.72;4994025;28;20409;-74
2021/03/26 05:42:10;;;;;;;30.00;14.73;;;;;;;8.04;62.17;101312.44;4998434;28;20065;-72
2021/03/26 05:45:50;;;;;;;28.05;15.95;;;;;;;8.17;61.78;101310.69;4994680;28;20069;-74
2021/03/26 05:49:40;;;;;;;25.80;15.40;;;;;;;8.41;61.00;101319.91;5014595;28;20129;-75
2021/03/26 05:52:53;;;;;;;26.15;13.02;;;;;;;8.62;59.82;101314.97;5004480;28;20141;-74
2021/03/26 05:56:27;;;;;;;26.02;13.27;;;;;;;8.70;58.78;101315.34;4993495;28;20517;-80
2021/03/26 06:00:16;;;;;;;22.10;13.02;;;;;;;8.66;58.13;101324.53;4993618;28;20042;-74
2021/03/26 06:04:05;;;;;;;22.15;11.88;;;;;;;8.72;57.88;101325.94;4994025;28;20058;-77
2021/03/26 06:07:45;;;;;;;22.67;12.20;;;;;;;8.90;57.71;101327.44;4994804;28;20461;-74
2021/03/26 06:11:33;;;;;;;18.88;11.77;;;;;;;9.40;56.60;101332.13;4994667;28;20049;-74
2021/03/26 06:15:15;;;;;;;54.35;37.78;;;;;;;9.86;55.42;101335.19;4994619;28;20065;-73
2021/03/26 06:19:02;;;;;;;34.28;18.02;;;;;;;10.18;54.56;101341.88;4994777;28;20053;-74
2021/03/26 06:22:57;;;;;;;26.58;16.23;;;;;;;10.58;53.50;101335.41;4992610;28;20126;-73
2021/03/26 06:26:44;;;;;;;21.80;12.25;;;;;;;10.86;52.16;101343.16;4992374;28;20058;-76
2021/03/26 06:30:28;;;;;;;22.13;12.18;;;;;;;11.05;52.17;101348.03;4992472;28;20047;-74
2021/03/26 06:37:09;;;;;;;23.23;13.23;;;;;;;11.51;51.00;101348.13;4995777;28;20061;-74
2021/03/26 06:40:39;;;;;;;23.45;14.05;;;;;;;12.11;49.10;101350.66;4919164;29;20040;-76
2021/03/26 06:44:28;;;;;;;22.83;13.35;;;;;;;12.26;47.86;101344.94;4919081;29;20048;-73
2021/03/26 06:48:01;;;;;;;20.00;12.65;;;;;;;12.34;47.66;101352.41;4918674;29;20048;-74
2021/03/26 06:51:41;;;;;;;23.63;12.45;;;;;;;12.37;47.31;101352.13;4918723;29;20044;-72
2021/03/26 06:55:24;;;;;;;20.88;12.35;;;;;;;12.18;47.59;101360.81;4918866;29;20404;-81
2021/03/26 06:58:49;;;;;;;21.05;13.02;;;;;;;12.35;47.11;101352.28;4914504;29;20059;-76
2021/03/26 07:02:43;;;;;;;23.38;13.80;;;;;;;12.43;46.65;101356.19;4946915;29;20055;-81
2021/03/26 07:06:16;;;;;;;22.00;13.68;;;;;;;12.56;46.66;101365.00;4956078;29;20047;-81
2021/03/26 07:09:41;;;;;;;19.15;13.90;;;;;;;13.03;45.84;101354.78;4953589;29;20043;-77
2021/03/26 07:12:51;;;;;;;26.25;14.10;;;;;;;12.82;45.44;101361.94;4940566;29;20050;-74
2021/03/26 07:16:42;;;;;;;21.83;13.40;;;;;;;12.75;46.26;101367.94;4980933;28;20042;-79
2021/03/26 07:20:14;;;;;;;20.27;13.07;;;;;;;13.54;44.75;101371.22;5027125;28;20042;-75
2021/03/26 07:23:29;;;;;;;27.42;13.75;;;;;;;15.68;41.57;101377.31;5014917;28;20046;-76
2021/03/26 07:26:59;;;;;;;21.45;12.63;;;;;;;15.95;40.62;101380.16;5015109;28;20041;-75
2021/03/26 07:30:43;;;;;;;21.05;13.15;;;;;;;15.34;41.77;101393.06;4992583;28;20039;-76
2021/03/26 07:33:58;;;;;;;21.85;13.15;;;;;;;17.05;38.77;101387.56;5016199;28;20038;-80
2021/03/26 07:37:20;;;;;;;37.42;12.80;;;;;;;18.94;35.28;101378.81;5014586;28;20050;-77
2021/03/26 07:40:33;;;;;;;21.33;12.90;;;;;;;21.16;32.05;101381.03;5015892;28;20049;-76
2021/03/26 07:43:49;;;;;;;21.88;11.55;;;;;;;25.02;26.93;101377.19;5010327;28;20042;-73
2021/03/26 07:47:34;;;;;;;15.27;11.45;;;;;;;28.96;21.84;101369.50;5010458;28;20046;-72
2021/03/26 07:51:03;;;;;;;17.50;11.45;;;;;;;31.40;19.39;101376.38;5003229;28;20038;-80
2021/03/26 07:54:32;;;;;;;13.65;10.95;;;;;;;31.61;19.48;101369.31;5015009;28;20042;-76
2021/03/26 07:57:51;;;;;;;17.17;11.57;;;;;;;33.70;17.48;101370.34;5015072;28;20046;-79
2021/03/26 08:01:33;;;;;;;15.90;10.20;;;;;;;35.07;16.62;101376.81;4984375;28;20054;-80
2021/03/26 08:04:46;;;;;;;14.88;10.27;;;;;;;34.94;16.95;101380.03;4988307;28;20037;-79
2021/03/26 08:08:11;;;;;;;16.30;10.05;;;;;;;36.21;16.02;101379.38;5008894;28;20409;-79
2021/03/26 08:11:38;;;;;;;13.35;9.75;;;;;;;36.61;16.00;101383.28;5011550;28;20050;-78
2021/03/26 08:15:19;;;;;;;14.57;9.63;;;;;;;36.58;15.49;101383.84;5013519;28;20049;-81
2021/03/26 08:18:56;;;;;;;12.60;8.73;;;;;;;37.84;15.47;101377.78;5014550;28;20045;-77
2021/03/26 08:22:18;;;;;;;13.32;9.60;;;;;;;35.80;16.67;101389.63;5015088;28;20291;-80
2021/03/26 08:25:38;;;;;;;11.98;9.68;;;;;;;36.99;15.61;101386.31;5015004;28;20053;-77
2021/03/26 08:28:54;;;;;;;15.15;9.07;;;;;;;37.43;15.54;101394.84;5013409;28;20397;-79
2021/03/26 08:32:23;;;;;;;14.23;9.15;;;;;;;38.17;15.39;101396.66;5014835;28;20520;-78
2021/03/26 08:35:53;;;;;;;13.20;9.07;;;;;;;38.79;14.74;101401.47;4995782;28;20073;-80
2021/03/26 08:39:19;;;;;;;16.63;9.75;;;;;;;38.23;15.15;101398.25;4995361;28;20050;-79
2021/03/26 08:42:23;;;;;;;12.82;8.75;;;;;;;38.09;15.78;101409.34;4998177;28;20064;-74
2021/03/26 08:45:34;;;;;;;17.63;9.70;;;;;;;38.66;14.88;101399.31;5025350;28;20056;-82
2021/03/26 08:48:54;;;;;;;13.68;9.30;;;;;;;37.80;15.65;101408.38;5034499;28;20052;-78
2021/03/26 08:52:14;;;;;;;18.02;10.90;;;;;;;36.57;16.99;101416.59;5034495;28;20049;-80
2021/03/26 08:55:48;;;;;;;14.73;9.90;;;;;;;35.45;17.30;101419.41;5033113;28;20049;-81
2021/03/26 08:59:17;;;;;;;18.88;9.65;;;;;;;35.61;17.41;101416.44;5034109;28;20060;-78
2021/03/26 09:02:38;;;;;;;21.90;9.13;;;;;;;35.40;18.01;101411.00;5034639;28;20057;-77
2021/03/26 09:06:21;;;;;;;21.98;9.65;;;;;;;34.94;18.35;101410.75;5034198;28;20049;-75
2021/03/26 09:10:03;;;;;;;15.98;10.50;;;;;;;33.79;18.98;101410.56;5034053;28;20052;-79
2021/03/26 09:13:23;;;;;;;15.43;11.50;;;;;;;34.28;18.17;101417.78;5020138;28;20034;-79
2021/03/26 09:16:31;;;;;;;15.70;11.80;;;;;;;33.69;19.09;101418.81;5014535;28;20049;-78
2021/03/26 09:19:42;;;;;;;23.38;13.20;;;;;;;29.65;23.24;101429.09;5013251;28;20405;-76
2021/03/26 09:23:05;;;;;;;22.45;12.00;;;;;;;27.15;26.39;101423.00;5014291;28;20393;-77
2021/03/26 09:26:46;;;;;;;19.05;12.15;;;;;;;25.53;28.39;101421.63;5013832;28;20058;-80
2021/03/26 09:30:03;;;;;;;18.20;13.15;;;;;;;24.09;30.08;101431.63;5013191;28;20042;-77
2021/03/26 09:33:08;;;;;;;19.02;13.13;;;;;;;23.55;31.51;101433.94;5013808;28;20042;-75
2021/03/26 09:36:20;;;;;;;20.98;15.15;;;;;;;22.69;32.76;101425.53;5014156;28;20042;-77
2021/03/26 09:39:24;;;;;;;19.45;14.32;;;;;;;22.79;33.15;101419.81;5013039;28;20042;-75
2021/03/26 09:42:43;;;;;;;20.55;15.98;;;;;;;;;;5013071;28;20050;-76
2021/03/26 09:45:59;;;;;;;21.63;15.88;;;;;;;21.17;35.23;101434.66;5013252;28;20048;-77
2021/03/26 09:49:13;;;;;;;22.17;17.88;;;;;;;20.72;36.36;101431.66;5012910;28;20045;-79
2021/03/26 09:52:29;;;;;;;23.40;17.92;;;;;;;20.85;35.86;101434.72;5012932;28;20054;-75
2021/03/26 09:55:37;;;;;;;21.42;17.13;;;;;;;20.44;36.82;101433.09;5013372;28;20045;-76
2021/03/26 09:59:04;;;;;;;20.92;17.25;;;;;;;20.18;36.90;101426.94;5013541;28;20046;-77
2021/03/26 10:02:09;;;;;;;22.98;17.58;;;;;;;20.19;37.66;101424.06;5013288;28;20042;-80
2021/03/26 10:05:35;;;;;;;26.63;19.55;;;;;;;19.56;38.09;101431.09;5014046;28;20050;-78
2021/03/26 10:12:26;;;;;;;26.98;20.08;;;;;;;19.96;37.11;101414.84;5013258;28;20046;-77
2021/03/26 10:15:36;;;;;;;26.05;20.05;;;;;;;19.90;37.56;101410.91;5013480;28;20054;-76
2021/03/26 10:19:07;;;;;;;31.73;20.83;;;;;;;19.92;37.87;101406.13;5013524;28;20393;-77
2021/03/26 10:22:25;;;;;;;38.75;21.25;;;;;;;19.07;40.03;101397.41;5013546;28;20042;-76
2021/03/26 10:25:58;;;;;;;33.63;22.50;;;;;;;18.88;39.90;101392.22;5012426;28;20046;-75
2021/03/26 10:29:19;;;;;;;30.77;23.38;;;;;;;18.77;39.73;101393.34;5012462;28;20038;-79
2021/03/26 10:32:29;;;;;;;33.47;23.15;;;;;;;18.77;40.14;101390.63;5001405;28;20054;-79
2021/03/26 10:35:37;;;;;;;39.83;22.73;;;;;;;18.76;41.55;101392.50;4992523;28;20050;-80
2021/03/26 10:38:48;;;;;;;37.78;22.00;;;;;;;19.07;40.84;101390.09;4993586;28;20054;-78
2021/03/26 10:42:05;;;;;;;39.38;24.45;;;;;;;18.97;40.43;101386.66;4993294;28;20038;-76
2021/03/26 10:45:22;;;;;;;33.88;25.60;;;;;;;19.00;39.38;101380.03;4992576;28;20050;-76
2021/03/26 10:48:54;;;;;;;39.45;26.70;;;;;;;18.98;39.62;101373.91;5015205;28;20042;-80
2021/03/26 10:52:39;;;;;;;33.72;25.00;;;;;;;19.00;40.72;101366.41;5012771;28;20469;-74
2021/03/26 10:55:55;;;;;;;35.67;27.27;;;;;;;18.35;41.81;101371.47;5018877;28;20042;-76
2021/03/26 10:59:05;;;;;;;39.35;25.95;;;;;;;18.70;40.74;101370.53;5012951;28;20046;-76
2021/03/26 11:02:16;;;;;;;40.92;26.20;;;;;;;18.68;40.91;101367.13;5012831;28;20050;-75
2021/03/26 11:05:31;;;;;;;42.10;28.02;;;;;;;18.55;40.00;101359.41;5012221;28;20050;-77
2021/03/26 11:08:54;;;;;;;41.83;28.23;;;;;;;18.56;41.36;101363.00;5013038;28;20046;-79
2021/03/26 11:12:17;;;;;;;39.17;28.67;;;;;;;18.10;42.02;101364.16;5012592;28;20042;-76
2021/03/26 11:15:32;;;;;;;35.63;26.95;;;;;;;17.84;43.58;101375.00;5012875;28;20401;-74
2021/03/26 11:18:47;;;;;;;36.28;27.45;;;;;;;18.07;43.21;101368.06;5014371;28;20046;-74
2021/03/26 11:22:02;;;;;;;34.60;28.90;;;;;;;18.18;43.31;101353.38;5016163;28;20042;-77
2021/03/26 11:25:19;;;;;;;36.03;28.52;;;;;;;18.16;42.86;101348.09;5015534;28;20038;-76
2021/03/26 11:28:32;;;;;;;43.65;28.88;;;;;;;18.12;43.08;101359.44;5016303;28;20054;-74
2021/03/26 11:31:50;;;;;;;38.05;27.77;;;;;;;17.86;42.90;101350.41;5016090;28;20045;-76
2021/03/26 11:35:13;;;;;;;33.40;25.02;;;;;;;17.75;43.06;101345.22;4996635;28;20050;-76
2021/03/26 11:38:23;;;;;;;32.58;24.33;;;;;;;18.04;41.96;101343.09;4996747;28;20042;-77
2021/03/26 11:41:39;;;;;;;33.70;25.00;;;;;;;18.16;42.01;101339.09;4997966;28;20049;-81
2021/03/26 11:44:57;;;;;;;40.00;27.90;;;;;;;17.98;42.16;101335.56;5000025;28;20046;-81
2021/03/26 11:48:14;;;;;;;34.75;27.25;;;;;;;17.94;42.47;101335.03;5015440;28;20038;-76
2021/03/26 11:51:39;;;;;;;38.13;27.42;;;;;;;17.94;42.67;101326.88;5033444;28;20496;-78
2021/03/26 11:54:46;;;;;;;33.17;26.58;;;;;;;17.91;43.59;101324.47;4996184;28;20062;-77
2021/03/26 11:58:04;;;;;;;39.05;27.45;;;;;;;17.80;43.51;101318.44;4994969;28;20042;-79
2021/03/26 12:01:10;;;;;;;33.90;27.40;;;;;;;17.92;43.04;101323.47;4996082;28;20065;-79
2021/03/26 12:04:18;;;;;;;30.42;23.58;;;;;;;17.92;43.23;101317.19;4996139;28;20486;-79
2021/03/26 12:07:38;;;;;;;32.03;24.58;;;;;;;17.96;42.69;101313.13;4995870;28;20042;-75
2021/03/26 12:11:01;;;;;;;32.47;24.10;;;;;;;17.78;42.17;101307.72;5005257;28;20042;-74
2021/03/26 12:14:21;;;;;;;33.83;25.30;;;;;;;18.00;42.61;101307.22;5015143;28;20045;-77
2021/03/26 12:17:42;;;;;;;37.13;27.83;;;;;;;18.13;42.57;101306.78;5021093;28;20038;-79
2021/03/26 12:20:46;;;;;;;38.45;30.00;;;;;;;18.00;43.36;101293.63;5035305;28;20045;-78
2021/03/26 12:24:01;;;;;;;35.13;27.77;;;;;;;18.18;42.54;101293.56;5021767;28;20049;-75
2021/03/26 12:27:17;;;;;;;36.83;29.90;;;;;;;18.20;42.90;101291.53;5012511;28;20038;-74
2021/03/26 12:30:28;;;;;;;38.25;28.17;;;;;;;18.17;42.66;101281.03;5009334;28;20046;-75
2021/03/26 12:34:16;;;;;;;37.42;28.17;;;;;;;18.08;42.85;101287.41;5010980;28;20489;-77
2021/03/26 12:37:42;;;;;;;39.40;30.00;;;;;;;18.17;43.16;101283.72;5012048;28;20042;-76
2021/03/26 12:40:47;;;;;;;37.72;30.40;;;;;;;18.37;42.62;101279.75;5012074;28;20342;-74
2021/03/26 12:44:10;;;;;;;36.45;29.00;;;;;;;18.28;43.33;101264.41;5013533;28;20042;-74
2021/03/26 12:47:17;;;;;;;38.50;31.37;;;;;;;18.25;42.45;101267.44;5014597;28;20481;-75
2021/03/26 12:50:36;;;;;;;34.13;29.60;;;;;;;18.28;42.06;101258.97;5014808;28;20277;-76
2021/03/26 12:53:52;;;;;;;37.58;29.77;;;;;;;18.33;42.54;101261.22;5014448;28;20054;-73
2021/03/26 12:57:22;;;;;;;38.03;28.40;;;;;;;18.37;41.19;101247.13;5013638;28;20050;-75
2021/03/26 13:00:36;;;;;;;35.70;28.38;;;;;;;18.28;40.83;101233.66;5014767;28;20038;-75
2021/03/26 13:03:54;;;;;;;31.25;26.08;;;;;;;18.10;41.49;101233.75;4995531;28;20373;-75
2021/03/26 13:07:04;;;;;;;41.22;29.27;;;;;;;18.15;42.65;101237.69;5013558;28;20042;-76
2021/03/26 13:10:17;;;;;;;36.47;27.85;;;;;;;18.25;41.89;101229.41;5011849;28;20042;-76
2021/03/26 13:13:53;;;;;;;36.25;27.52;;;;;;;18.22;41.53;101234.31;5014044;28;20042;-79
2021/03/26 13:16:58;;;;;;;37.22;27.73;;;;;;;18.15;41.07;101234.09;5014138;28;20034;-78
2021/03/26 13:20:13;;;;;;;37.03;27.25;;;;;;;18.27;40.45;101227.38;5013819;28;20046;-74
2021/03/26 13:23:23;;;;;;;36.85;27.58;;;;;;;18.22;39.94;101228.88;5013989;28;20045;-73
2021/03/26 13:26:29;;;;;;;38.95;26.50;;;;;;;18.29;39.08;101228.09;5013227;28;20042;-75
2021/03/26 13:29:34;;;;;;;35.38;24.90;;;;;;;18.38;38.93;101231.66;5023748;28;20046;-72
2021/03/26 13:32:49;;;;;;;36.05;25.65;;;;;;;18.49;39.15;101218.66;5025629;28;20042;-77
2021/03/26 13:35:59;;;;;;;34.03;25.98;;;;;;;18.58;38.16;101214.09;5012788;28;20042;-80
2021/03/26 13:39:58;;;;;;;37.00;27.00;;;;;;;18.51;39.96;101215.78;5013059;28;20037;-80
2021/03/26 13:43:29;;;;;;;41.70;27.60;;;;;;;18.46;40.53;101213.56;5019622;28;20050;-81
2021/03/26 13:46:35;;;;;;;34.80;24.92;;;;;;;18.38;39.87;101208.06;5013556;28;20042;-78
2021/03/26 13:49:49;;;;;;;35.15;25.48;;;;;;;18.30;39.92;101201.72;5012413;28;20042;-76
2021/03/26 13:52:54;;;;;;;37.03;25.45;;;;;;;18.38;40.08;101209.91;5013523;28;20050;-73
2021/03/26 13:56:20;;;;;;;28.88;21.80;;;;;;;18.37;38.81;101206.34;5013278;28;20106;-75
2021/03/26 13:59:30;;;;;;;30.40;21.20;;;;;;;18.51;38.21;101205.78;4996139;28;20402;-77
2021/03/26 14:02:38;;;;;;;34.00;22.38;;;;;;;18.55;38.67;101206.28;5012491;28;20397;-77
2021/03/26 14:05:50;;;;;;;31.05;22.35;;;;;;;18.70;38.48;101210.91;5012382;28;20046;-76
2021/03/26 14:08:54;;;;;;;31.20;23.15;;;;;;;18.68;38.22;101198.50;5012730;28;20038;-77
2021/03/26 14:12:06;;;;;;;31.00;22.02;;;;;;;18.75;37.86;101205.84;5001560;28;20058;-80
2021/03/26 14:15:23;;;;;;;39.47;25.70;;;;;;;18.68;39.43;101202.09;5012209;28;20038;-80
2021/03/26 14:18:33;;;;;;;35.88;24.65;;;;;;;18.73;38.91;101207.00;5013218;28;20042;-77
2021/03/26 14:21:44;;;;;;;38.85;26.30;;;;;;;18.64;40.85;101197.97;5013229;28;20045;-74
2021/03/26 14:25:02;;;;;;;35.55;27.20;;;;;;;18.66;40.37;101195.09;5013346;28;20397;-77
2021/03/26 14:28:26;;;;;;;34.45;26.20;;;;;;;18.61;41.01;101192.88;5012537;28;20046;-79
2021/03/26 14:31:45;;;;;;;31.67;24.83;;;;;;;18.57;40.59;101199.66;5013083;28;20405;-81
2021/03/26 14:34:59;;;;;;;37.78;27.48;;;;;;;18.49;40.46;101191.47;5012054;28;20042;-75
2021/03/26 14:38:28;;;;;;;37.17;24.75;;;;;;;18.59;40.56;101189.47;5012799;28;20046;-79
2021/03/26 14:41:39;;;;;;;35.35;25.75;;;;;;;18.74;40.24;101176.06;5013063;28;20477;-78
2021/03/26 14:44:51;;;;;;;38.72;26.75;;;;;;;18.80;40.75;101192.59;5012261;28;20046;-76
2021/03/26 14:48:17;;;;;;;40.90;26.33;;;;;;;18.78;41.00;101185.59;5003013;28;20412;-75
2021/03/26 14:51:51;;;;;;;37.15;27.17;;;;;;;18.78;40.03;101183.75;5032711;28;20041;-81
2021/03/26 14:55:06;;;;;;;31.50;26.50;;;;;;;18.80;40.18;101176.25;5035739;28;20045;-79
2021/03/26 14:58:32;;;;;;;34.17;25.42;;;;;;;18.93;40.30;101180.34;5036429;28;20057;-75
2021/03/26 15:01:40;;;;;;;34.35;25.73;;;;;;;18.95;40.34;101172.88;5019758;28;20401;-75
2021/03/26 15:04:52;;;;;;;32.85;27.50;;;;;;;18.94;40.42;101168.44;5017040;28;20067;-79
2021/03/26 15:08:00;;;;;;;39.72;26.73;;;;;;;18.95;40.42;101162.84;5015367;28;20037;-77
2021/03/26 15:11:08;;;;;;;33.58;27.52;;;;;;;18.89;39.90;101163.50;5015323;28;20398;-77
2021/03/26 15:14:14;;;;;;;40.35;28.33;;;;;;;18.89;40.41;101166.22;5016344;28;20038;-75
2021/03/26 15:17:37;;;;;;;32.72;26.55;;;;;;;18.81;40.61;101168.97;5015584;28;20042;-75
2021/03/26 15:20:42;;;;;;;35.85;27.13;;;;;;;18.81;40.70;101164.34;5015698;28;20401;-75